createdAt,value
2023-02-25T00:02:41.073Z,93252
2023-02-25T00:06:06.267Z,93254
2023-02-25T00:09:31.514Z,93251
2023-02-25T00:13:05.830Z,93254
2023-02-25T00:16:22.442Z,93250
2023-02-25T00:19:47.205Z,93259
2023-02-25T00:23:12.461Z,93262
2023-02-25T00:26:37.721Z,93269
2023-02-25T00:30:02.990Z,93262
2023-02-25T00:33:28.207Z,93267
2023-02-25T00:36:53.507Z,93260
2023-02-25T00:40:18.695Z,93274
2023-02-25T00:43:43.979Z,93264
2023-02-25T00:47:09.255Z,93268
2023-02-25T00:50:34.481Z,93269
2023-02-25T00:53:59.730Z,93264
2023-02-25T00:57:24.974Z,93265
2023-02-25T01:00:51.938Z,93265
2023-02-25T01:04:15.509Z,93250
2023-02-25T01:07:40.735Z,93256
2023-02-25T01:11:05.972Z,93265
2023-02-25T01:14:31.228Z,93259
2023-02-25T01:17:56.463Z,93259
2023-02-25T01:21:21.727Z,93269
2023-02-25T01:24:46.974Z,93266
2023-02-25T01:28:12.191Z,93262
2023-02-25T01:31:37.584Z,93269
2023-02-25T01:35:02.738Z,93258
2023-02-25T01:38:28.019Z,93263
2023-02-25T01:41:53.285Z,93264
2023-02-25T01:45:18.538Z,93263
2023-02-25T01:48:43.782Z,93270
2023-02-25T01:52:09.055Z,93270
2023-02-25T01:55:34.338Z,93269
2023-02-25T01:58:59.580Z,93275
2023-02-25T02:02:24.835Z,93273
2023-02-25T02:05:50.071Z,93271
2023-02-25T02:09:15.333Z,93277
2023-02-25T02:12:40.582Z,93273
2023-02-25T02:16:05.850Z,93276
2023-02-25T02:19:31.024Z,93275
2023-02-25T02:22:56.336Z,93280
2023-02-25T02:26:21.936Z,93278
2023-02-25T02:29:46.852Z,93278
2023-02-25T02:33:12.060Z,93274
2023-02-25T02:36:37.326Z,93273
2023-02-25T02:40:02.577Z,93280
2023-02-25T02:43:27.846Z,93284
2023-02-25T02:46:53.102Z,93284
2023-02-25T02:50:18.345Z,93280
2023-02-25T02:53:43.580Z,93287
2023-02-25T02:57:08.834Z,93284
2023-02-25T03:00:34.086Z,93280
2023-02-25T03:03:59.368Z,93280
2023-02-25T03:07:24.568Z,93280
2023-02-25T03:10:49.814Z,93291
2023-02-25T03:14:15.083Z,93293
2023-02-25T03:17:40.307Z,93293
2023-02-25T03:21:05.580Z,93300
2023-02-25T03:24:30.815Z,93299
2023-02-25T03:27:56.065Z,93304
2023-02-25T03:31:21.330Z,93310
2023-02-25T03:34:46.524Z,93309
2023-02-25T03:38:11.796Z,93305
2023-02-25T03:41:36.997Z,93311
2023-02-25T03:45:02.266Z,93317
2023-02-25T03:48:27.515Z,93320
2023-02-25T03:51:52.740Z,93325
2023-02-25T03:55:17.998Z,93318
2023-02-25T03:58:43.247Z,93311
2023-02-25T04:02:09.072Z,93316
2023-02-25T04:05:34.332Z,93321
2023-02-25T04:08:59.568Z,93323
2023-02-25T04:12:24.856Z,93311
2023-02-25T04:15:50.138Z,93318
2023-02-25T04:19:15.322Z,93327
2023-02-25T04:22:40.573Z,93327
2023-02-25T04:26:05.824Z,93327
2023-02-25T04:29:31.058Z,93328
2023-02-25T04:32:56.278Z,93334
2023-02-25T04:36:21.751Z,93340
2023-02-25T04:39:46.756Z,93339
2023-02-25T04:43:12.031Z,93342
2023-02-25T04:46:37.355Z,93333
2023-02-25T04:50:02.557Z,93341
2023-02-25T04:53:27.756Z,93340
2023-02-25T04:56:52.995Z,93344
2023-02-25T05:00:18.247Z,93341
2023-02-25T05:03:43.482Z,93345
2023-02-25T05:07:08.730Z,93346
2023-02-25T05:10:33.953Z,93350
2023-02-25T05:13:59.173Z,93349
2023-02-25T05:17:24.411Z,93347
2023-02-25T05:20:49.672Z,93351
2023-02-25T05:24:14.897Z,93364
2023-02-25T05:27:40.119Z,93366
2023-02-25T05:31:05.552Z,93365
2023-02-25T05:34:30.630Z,93362
2023-02-25T05:37:55.882Z,93360
2023-02-25T05:41:21.096Z,93359
2023-02-25T05:44:46.330Z,93354
2023-02-25T05:48:11.601Z,93365
2023-02-25T05:51:36.831Z,93363
2023-02-25T05:55:02.141Z,93363
2023-02-25T05:58:27.288Z,93363
2023-02-25T06:01:52.558Z,93373
2023-02-25T06:05:17.762Z,93376
2023-02-25T06:08:42.997Z,93383
2023-02-25T06:12:08.303Z,93382
2023-02-25T06:15:33.529Z,93383
2023-02-25T06:18:58.735Z,93389
2023-02-25T06:22:23.970Z,93391
2023-02-25T06:25:49.205Z,93386
2023-02-25T06:29:14.458Z,93390
2023-02-25T06:32:39.800Z,93402
2023-02-25T06:36:05.130Z,93415
2023-02-25T06:39:30.443Z,93413
2023-02-25T06:42:55.752Z,93421
2023-02-25T06:46:21.210Z,93430
2023-02-25T06:49:46.293Z,93442
2023-02-25T06:53:11.533Z,93443
2023-02-25T06:56:36.800Z,93457
2023-02-25T07:00:02.082Z,93465
2023-02-25T07:03:27.399Z,93453
2023-02-25T07:06:52.666Z,93468
2023-02-25T07:10:17.935Z,93459
2023-02-25T07:13:43.234Z,93468
2023-02-25T07:17:08.550Z,93462
2023-02-25T07:20:34.616Z,93463
2023-02-25T07:23:59.858Z,93465
2023-02-25T07:27:25.158Z,93461
2023-02-25T07:30:50.562Z,93467
2023-02-25T07:34:15.830Z,93471
2023-02-25T07:37:41.330Z,93458
2023-02-25T07:41:06.567Z,93454
2023-02-25T07:44:31.815Z,93451
2023-02-25T07:47:57.064Z,93455
2023-02-25T07:51:22.615Z,93458
2023-02-25T07:54:48.101Z,93459
2023-02-25T07:58:16.089Z,93464
2023-02-25T08:01:41.324Z,93463
2023-02-25T08:05:06.550Z,93468
2023-02-25T08:08:31.773Z,93471
2023-02-25T08:11:57.604Z,93475
2023-02-25T08:15:22.807Z,93474
2023-02-25T08:18:48.072Z,93478
2023-02-25T08:22:13.336Z,93475
2023-02-25T08:25:38.584Z,93470
2023-02-25T08:29:03.870Z,93471
2023-02-25T08:32:29.125Z,93472
2023-02-25T08:35:54.292Z,93468
2023-02-25T08:39:19.543Z,93477
2023-02-25T08:42:44.803Z,93482
2023-02-25T08:46:10.091Z,93483
2023-02-25T08:49:35.319Z,93495
2023-02-25T08:53:00.568Z,93492
2023-02-25T08:56:25.795Z,93505
2023-02-25T08:59:51.037Z,93498
2023-02-25T09:03:16.291Z,93503
2023-02-25T09:06:41.529Z,93497
2023-02-25T09:10:06.776Z,93494
2023-02-25T09:13:32.018Z,93499
2023-02-25T09:16:57.953Z,93508
2023-02-25T09:20:23.999Z,93511
2023-02-25T09:23:49.467Z,93509
2023-02-25T09:27:14.677Z,93506
2023-02-25T09:30:39.880Z,93501
2023-02-25T09:34:05.130Z,93513
2023-02-25T09:37:30.380Z,93518
2023-02-25T09:40:55.578Z,93512
2023-02-25T09:44:20.797Z,93519
2023-02-25T09:47:46.070Z,93517
2023-02-25T09:51:11.240Z,93519
2023-02-25T09:54:36.480Z,93526
2023-02-25T09:58:01.744Z,93528
2023-02-25T10:01:26.967Z,93544
2023-02-25T10:04:52.192Z,93537
2023-02-25T10:08:17.435Z,93536
2023-02-25T10:11:42.657Z,93546
2023-02-25T10:15:07.842Z,93547
2023-02-25T10:18:33.080Z,93547
2023-02-25T10:21:58.392Z,93548
2023-02-25T10:25:23.618Z,93562
2023-02-25T10:28:48.861Z,93568
2023-02-25T10:32:14.322Z,93558
2023-02-25T10:35:39.471Z,93562
2023-02-25T10:39:04.647Z,93563
2023-02-25T10:42:29.865Z,93569
2023-02-25T10:45:55.215Z,93569
2023-02-25T10:49:20.312Z,93569
2023-02-25T10:52:45.515Z,93565
2023-02-25T10:56:10.723Z,93569
2023-02-25T10:59:35.929Z,93571
2023-02-25T11:03:01.386Z,93578
2023-02-25T11:06:26.340Z,93572
2023-02-25T11:09:51.552Z,93573
2023-02-25T11:13:16.765Z,93583
2023-02-25T11:16:42.091Z,93585
2023-02-25T11:20:07.219Z,93578
2023-02-25T11:23:32.376Z,93583
2023-02-25T11:26:57.592Z,93585
2023-02-25T11:30:22.807Z,93592
2023-02-25T11:33:48.000Z,93586
2023-02-25T11:37:13.220Z,93598
2023-02-25T11:40:38.448Z,93597
2023-02-25T11:44:03.638Z,93605
2023-02-25T11:47:28.846Z,93609
2023-02-25T11:50:54.118Z,93616
2023-02-25T11:54:19.397Z,93600
2023-02-25T11:57:44.629Z,93612
2023-02-25T12:01:11.618Z,93611
2023-02-25T12:04:35.091Z,93620
2023-02-25T12:08:12.735Z,93610
2023-02-25T12:11:25.545Z,93606
2023-02-25T12:14:50.730Z,93604
2023-02-25T12:18:15.946Z,93611
2023-02-25T12:21:41.165Z,93604
2023-02-25T12:25:06.378Z,93611
2023-02-25T12:28:31.670Z,93607
2023-02-25T12:31:56.979Z,93607
2023-02-25T12:35:22.027Z,93609
2023-02-25T12:38:47.233Z,93610
2023-02-25T12:42:12.467Z,93619
2023-02-25T12:45:37.787Z,93624
2023-02-25T12:49:02.917Z,93616
2023-02-25T12:52:28.178Z,93622
2023-02-25T12:55:53.368Z,93619
2023-02-25T12:59:18.584Z,93619
2023-02-25T13:02:43.842Z,93624
2023-02-25T13:06:09.001Z,93625
2023-02-25T13:09:34.199Z,93625
2023-02-25T13:12:59.424Z,93622
2023-02-25T13:16:24.644Z,93629
2023-02-25T13:19:49.868Z,93629
2023-02-25T13:23:15.026Z,93628
2023-02-25T13:26:40.230Z,93632
2023-02-25T13:30:05.453Z,93631
2023-02-25T13:33:30.644Z,93639
2023-02-25T13:36:55.870Z,93634
2023-02-25T13:40:21.064Z,93634
2023-02-25T13:43:46.278Z,93634
2023-02-25T13:47:11.565Z,93631
2023-02-25T13:50:36.789Z,93633
2023-02-25T13:54:02.025Z,93630
2023-02-25T13:57:27.184Z,93636
2023-02-25T14:00:52.422Z,93639
2023-02-25T14:04:17.600Z,93640
2023-02-25T14:07:42.810Z,93644
2023-02-25T14:11:08.044Z,93641
2023-02-25T14:14:33.204Z,93645
2023-02-25T14:17:58.455Z,93643
2023-02-25T14:21:23.894Z,93652
2023-02-25T14:24:48.904Z,93656
2023-02-25T14:28:14.139Z,93665
2023-02-25T15:06:49.174Z,93766
2023-02-25T15:10:14.703Z,93762
2023-02-25T15:13:39.941Z,93773
2023-02-25T15:17:05.189Z,93775
2023-02-25T15:20:30.412Z,93777
2023-02-25T15:23:55.663Z,93784
2023-02-25T15:27:20.862Z,93784
2023-02-25T15:30:46.165Z,93789
2023-02-25T15:34:11.311Z,93793
2023-02-25T15:37:36.519Z,93794
2023-02-25T15:41:01.805Z,93796
2023-02-25T15:44:26.947Z,93797
2023-02-25T15:47:52.176Z,93791
2023-02-25T15:51:17.409Z,93791
2023-02-25T15:54:42.602Z,93795
2023-02-25T15:58:07.875Z,93803
2023-02-25T16:01:33.135Z,93816
2023-02-25T16:04:58.374Z,93822
2023-02-25T16:08:23.642Z,93820
2023-02-25T16:11:48.867Z,93830
2023-02-25T16:15:14.090Z,93849
2023-02-25T16:18:39.277Z,93851
2023-02-25T16:22:04.499Z,93843
2023-02-25T16:25:29.742Z,93856
2023-02-25T16:28:54.966Z,93867
2023-02-25T16:32:20.357Z,93871
2023-02-25T16:35:45.396Z,93876
2023-02-25T16:39:10.652Z,93879
2023-02-25T16:42:35.872Z,93885
2023-02-25T16:46:01.080Z,93888
2023-02-25T16:49:26.325Z,93896
2023-02-25T16:52:51.541Z,93902
2023-02-25T16:56:16.720Z,93904
2023-02-25T16:59:41.946Z,93909
2023-02-25T17:03:07.189Z,93908
2023-02-25T17:06:32.403Z,93913
2023-02-25T17:09:57.616Z,93927
2023-02-25T17:13:22.879Z,93938
2023-02-25T17:16:48.236Z,93937
2023-02-25T17:20:13.449Z,93948
2023-02-25T17:23:38.706Z,93947
2023-02-25T17:27:03.942Z,93963
2023-02-25T17:30:29.306Z,93958
2023-02-25T17:33:54.693Z,93968
2023-02-25T17:37:20.126Z,93978
2023-02-25T17:40:45.423Z,93977
2023-02-25T17:44:10.677Z,93983
2023-02-25T17:47:35.936Z,93983
2023-02-25T17:51:01.202Z,93983
2023-02-25T17:54:26.605Z,93990
2023-02-25T17:57:51.915Z,93995
2023-02-25T18:01:17.267Z,93997
2023-02-25T18:04:42.490Z,93998
2023-02-25T18:08:07.788Z,94003
2023-02-25T18:11:33.064Z,94011
2023-02-25T18:14:59.226Z,94026
2023-02-25T18:18:24.496Z,94020
2023-02-25T18:21:49.785Z,94025
2023-02-25T18:25:15.050Z,94034
2023-02-25T18:28:40.324Z,94036
2023-02-25T18:32:05.728Z,94036
2023-02-25T18:35:30.836Z,94045
2023-02-25T18:38:56.152Z,94051
2023-02-25T18:42:21.410Z,94045
2023-02-25T18:45:46.711Z,94057
2023-02-25T18:49:12.047Z,94048
2023-02-25T18:52:37.273Z,94055
2023-02-25T18:56:02.565Z,94055
2023-02-25T18:59:27.862Z,94067
2023-02-25T19:02:53.188Z,94064
2023-02-25T19:06:18.415Z,94064
2023-02-25T19:09:43.672Z,94065
2023-02-25T19:13:08.961Z,94059
2023-02-25T19:16:34.261Z,94069
2023-02-25T19:19:59.515Z,94067
2023-02-25T19:23:24.827Z,94072
2023-02-25T19:26:50.084Z,94068
2023-02-25T19:30:15.370Z,94076
2023-02-25T19:33:40.627Z,94071
2023-02-25T19:37:05.933Z,94077
2023-02-25T19:40:31.268Z,94083
2023-02-25T19:43:56.502Z,94079
2023-02-25T19:47:21.828Z,94085
2023-02-25T19:50:47.097Z,94090
2023-02-25T19:54:12.367Z,94105
2023-02-25T19:57:37.691Z,94097
2023-02-25T20:01:03.065Z,94108
2023-02-25T20:04:28.318Z,94109
2023-02-25T20:07:53.577Z,94108
2023-02-25T20:11:18.865Z,94116
2023-02-25T20:14:44.158Z,94119
2023-02-25T20:18:09.416Z,94128
2023-02-25T20:21:34.686Z,94131
2023-02-25T20:24:59.970Z,94136
2023-02-25T20:28:25.207Z,94146
2023-02-25T20:31:50.611Z,94135
2023-02-25T20:35:15.769Z,94144
2023-02-25T20:38:41.831Z,94155
2023-02-25T20:42:07.117Z,94159
2023-02-25T20:45:32.422Z,94166
2023-02-25T20:48:57.683Z,94167
2023-02-25T20:52:22.928Z,94176
2023-02-25T20:55:48.223Z,94174
2023-02-25T20:59:13.496Z,94175
2023-02-25T21:02:38.818Z,94175
2023-02-25T21:06:04.114Z,94180
2023-02-25T21:09:29.368Z,94173
2023-02-25T21:12:54.668Z,94178
2023-02-25T21:16:19.980Z,94182
2023-02-25T21:19:45.230Z,94182
2023-02-25T21:23:11.404Z,94184
2023-02-25T21:26:35.804Z,94189
2023-02-25T21:30:01.121Z,94196
2023-02-25T21:33:26.405Z,94198
2023-02-25T21:36:51.676Z,94195
2023-02-25T21:40:17.020Z,94200
2023-02-25T21:43:42.283Z,94197
2023-02-25T21:47:07.542Z,94209
2023-02-25T21:50:32.821Z,94209
2023-02-25T21:53:58.136Z,94202
2023-02-25T21:57:23.440Z,94207
2023-02-25T22:00:48.726Z,94208
2023-02-25T22:04:14.117Z,94209
2023-02-25T22:07:39.259Z,94211
2023-02-25T22:11:04.548Z,94212
2023-02-25T22:14:29.834Z,94205
2023-02-25T22:17:55.115Z,94209
2023-02-25T22:21:20.409Z,94206
2023-02-25T22:24:45.708Z,94215
2023-02-25T22:28:10.992Z,94221
2023-02-25T22:31:36.449Z,94220
2023-02-25T22:35:01.539Z,94221
2023-02-25T22:38:26.789Z,94219
2023-02-25T22:41:52.087Z,94228
2023-02-25T22:45:17.375Z,94227
2023-02-25T22:48:42.658Z,94225
2023-02-25T22:52:07.908Z,94225
2023-02-25T22:55:33.155Z,94230
2023-02-25T22:58:58.432Z,94236
2023-02-25T23:02:23.700Z,94235
2023-02-25T23:05:49.032Z,94246
2023-02-25T23:09:14.345Z,94241
2023-02-25T23:12:39.576Z,94251
2023-02-25T23:16:04.932Z,94252
2023-02-25T23:19:30.101Z,94257
2023-02-25T23:22:55.401Z,94254
2023-02-25T23:26:20.653Z,94261
2023-02-25T23:29:45.907Z,94250
2023-02-25T23:33:12.470Z,94259
2023-02-25T23:36:36.502Z,94266
2023-02-25T23:40:01.783Z,94260
2023-02-25T23:43:27.008Z,94272
2023-02-25T23:46:52.283Z,94268
2023-02-25T23:50:17.703Z,94278
2023-02-25T23:53:42.845Z,94271
2023-02-25T23:57:08.176Z,94282
